Time;durP1;ratioP1;P1;durP2;ratioP2;P2;SDS_P1;SDS_P2;PMS_P1;PMS_P2;Temp;Humidity;BMP_temperature;BMP_pressure;BME280_temperature;BME280_humidity;BME280_pressure;Samples;Min_cycle;Max_cycle;Signal;HPM_P1;HPM_P2
2024/01/25 00:01:54;;;;;;;19.97;3.03;;;8.40;99.90;;;;;;5053689;28;20040;-53
2024/01/25 00:04:19;;;;;;;16.27;3.43;;;8.30;99.90;;;;;;5053581;28;20112;-56
2024/01/25 00:06:45;;;;;;;15.10;3.00;;;8.40;99.90;;;;;;5053189;28;20056;-54
2024/01/25 00:09:10;;;;;;;19.73;2.90;;;8.50;99.90;;;;;;5053443;28;20116;-55
2024/01/25 00:11:36;;;;;;;22.97;3.63;;;8.50;99.90;;;;;;5053671;28;20036;-55
2024/01/25 00:14:02;;;;;;;18.70;3.17;;;8.50;99.90;;;;;;5053353;28;20036;-56
2024/01/25 00:16:28;;;;;;;20.83;3.00;;;8.40;99.90;;;;;;5053566;28;20072;-54
2024/01/25 00:18:53;;;;;;;20.67;2.77;;;8.40;99.90;;;;;;5052036;28;20155;-55
2024/01/25 00:21:19;;;;;;;19.10;3.80;;;8.40;99.90;;;;;;5053513;28;20040;-54
2024/01/25 00:23:44;;;;;;;17.37;3.00;;;8.40;99.90;;;;;;5053193;28;20209;-56
2024/01/25 00:26:10;;;;;;;23.10;4.07;;;8.40;99.90;;;;;;5053285;28;20048;-56
2024/01/25 00:28:35;;;;;;;18.17;3.33;;;8.40;99.90;;;;;;5053091;28;20067;-56
2024/01/25 00:31:01;;;;;;;19.93;3.60;;;8.40;99.90;;;;;;5053262;28;20033;-56
2024/01/25 00:33:27;;;;;;;13.13;2.70;;;8.40;99.90;;;;;;5052970;28;20025;-55
2024/01/25 00:35:52;;;;;;;17.57;3.57;;;8.30;99.90;;;;;;5052968;28;20032;-55
2024/01/25 00:38:18;;;;;;;27.57;4.37;;;8.30;99.90;;;;;;5052985;28;20025;-55
2024/01/25 00:40:45;;;;;;;19.43;3.80;;;8.30;99.90;;;;;;5051815;28;20535;-54
2024/01/25 00:43:11;;;;;;;22.20;4.67;;;8.30;99.90;;;;;;5052764;28;20025;-55
2024/01/25 00:45:36;;;;;;;16.60;3.10;;;8.30;99.90;;;;;;5052912;28;20028;-55
2024/01/25 00:48:02;;;;;;;22.47;3.60;;;8.30;99.90;;;;;;5052492;28;20098;-55
2024/01/25 00:50:28;;;;;;;20.50;4.07;;;8.30;99.90;;;;;;5052719;28;20032;-56
2024/01/25 00:52:54;;;;;;;29.77;4.10;;;8.30;99.90;;;;;;5052449;28;20098;-53
2024/01/25 00:55:20;;;;;;;20.37;3.63;;;8.30;99.90;;;;;;5052724;28;20048;-54
2024/01/25 00:57:46;;;;;;;17.83;2.90;;;8.20;99.90;;;;;;5052433;28;20386;-55
2024/01/25 01:00:12;;;;;;;23.17;3.00;;;8.10;99.90;;;;;;5052843;28;20025;-55
2024/01/25 01:02:45;;;;;;;20.80;2.93;;;8.10;99.90;;;;;;5052552;28;20040;-56
2024/01/25 01:05:11;;;;;;;27.07;4.03;;;8.00;99.90;;;;;;5052489;28;20029;-56
2024/01/25 01:07:39;;;;;;;23.93;3.17;;;8.00;99.90;;;;;;5052088;28;20037;-55
2024/01/25 01:10:05;;;;;;;14.87;2.67;;;7.90;99.90;;;;;;5052534;28;20090;-55
2024/01/25 01:12:31;;;;;;;20.13;3.90;;;7.90;99.90;;;;;;5052473;28;20029;-53
2024/01/25 01:14:56;;;;;;;17.67;3.07;;;7.90;99.90;;;;;;5052916;28;20044;-52
2024/01/25 01:17:22;;;;;;;14.50;2.67;;;7.80;99.90;;;;;;5052333;28;20044;-54
2024/01/25 01:19:47;;;;;;;17.97;3.17;;;7.70;99.90;;;;;;5052555;28;20029;-55
2024/01/25 01:22:13;;;;;;;25.43;3.97;;;7.60;99.90;;;;;;5052213;28;20033;-55
2024/01/25 01:24:39;;;;;;;18.50;3.83;;;7.50;99.90;;;;;;5052591;28;20025;-56
2024/01/25 01:27:04;;;;;;;16.27;3.27;;;7.50;99.90;;;;;;5052072;28;20033;-56
2024/01/25 01:29:30;;;;;;;27.23;3.60;;;7.40;99.90;;;;;;5051884;28;20029;-56
2024/01/25 01:31:55;;;;;;;19.93;3.30;;;7.50;99.90;;;;;;5052044;28;20017;-55
2024/01/25 01:34:21;;;;;;;20.57;2.90;;;7.50;99.90;;;;;;5052143;28;20458;-56
2024/01/25 01:36:46;;;;;;;20.00;2.80;;;7.40;99.90;;;;;;5051805;28;20036;-52
2024/01/25 01:39:13;;;;;;;16.40;3.17;;;7.40;99.90;;;;;;5051957;28;20434;-56
2024/01/25 01:41:38;;;;;;;19.17;2.97;;;7.30;99.90;;;;;;5051921;28;20682;-56
2024/01/25 01:44:04;;;;;;;24.43;3.90;;;7.30;99.90;;;;;;5051963;28;20032;-55
2024/01/25 01:46:34;;;;;;;29.27;3.50;;;7.20;99.90;;;;;;5051702;28;20048;-56
2024/01/25 01:49:01;;;;;;;14.50;2.80;;;7.20;99.90;;;;;;5051673;28;20149;-56
2024/01/25 01:51:28;;;;;;;15.80;2.53;;;7.20;99.90;;;;;;5051701;28;20033;-56
2024/01/25 01:53:54;;;;;;;15.43;2.93;;;7.10;99.90;;;;;;5051790;28;20032;-55
2024/01/25 01:56:20;;;;;;;20.07;2.87;;;7.10;99.90;;;;;;5051501;28;20029;-55
2024/01/25 01:58:48;;;;;;;19.43;2.83;;;7.10;99.90;;;;;;5050961;28;20025;-54
2024/01/25 02:01:13;;;;;;;18.43;2.83;;;7.10;99.90;;;;;;5051704;28;20048;-55
2024/01/25 02:03:39;;;;;;;13.10;2.53;;;7.00;99.90;;;;;;5051104;28;20045;-56
2024/01/25 02:06:06;;;;;;;23.23;3.13;;;7.00;99.90;;;;;;5051175;28;20143;-53
2024/01/25 02:08:32;;;;;;;22.60;2.47;;;6.90;99.90;;;;;;5051128;28;20100;-56
2024/01/25 02:10:58;;;;;;;21.23;3.27;;;6.90;99.90;;;;;;5051298;28;20033;-54
2024/01/25 02:13:24;;;;;;;20.10;2.90;;;7.00;99.90;;;;;;5050924;28;20027;-56
2024/01/25 02:15:49;;;;;;;20.57;3.97;;;7.00;99.90;;;;;;5051099;28;20029;-56
2024/01/25 02:18:15;;;;;;;17.57;2.73;;;7.10;99.90;;;;;;5051030;28;20111;-56
2024/01/25 02:20:41;;;;;;;17.93;3.03;;;7.10;99.90;;;;;;5050927;28;20037;-56
2024/01/25 02:23:06;;;;;;;25.63;3.17;;;7.10;99.90;;;;;;5051015;28;20029;-56
2024/01/25 02:25:32;;;;;;;21.93;3.80;;;7.10;99.90;;;;;;5049436;28;20055;-56
2024/01/25 02:27:57;;;;;;;21.87;3.00;;;7.10;99.90;;;;;;5049451;28;20033;-56
2024/01/25 02:30:23;;;;;;;13.23;2.10;;;7.10;99.90;;;;;;5050672;28;20017;-56
2024/01/25 02:32:49;;;;;;;21.37;2.50;;;7.20;99.90;;;;;;5050099;28;20025;-56
2024/01/25 02:35:14;;;;;;;15.93;3.13;;;7.20;99.90;;;;;;5049834;28;20033;-54
2024/01/25 02:37:40;;;;;;;31.43;3.30;;;7.20;99.90;;;;;;5050345;28;20040;-54
2024/01/25 02:40:06;;;;;;;18.67;3.40;;;7.20;99.90;;;;;;5050800;28;20090;-53
2024/01/25 02:42:31;;;;;;;16.23;2.60;;;7.20;99.90;;;;;;5050545;28;20235;-55
2024/01/25 02:44:57;;;;;;;22.90;4.37;;;7.20;99.90;;;;;;5050900;28;20073;-54
2024/01/25 02:47:23;;;;;;;15.90;3.30;;;7.10;99.90;;;;;;5050381;28;20119;-55
2024/01/25 02:49:48;;;;;;;16.83;2.50;;;7.20;99.90;;;;;;5050688;28;20374;-55
2024/01/25 02:52:14;;;;;;;26.80;3.17;;;7.10;99.90;;;;;;5049485;28;20079;-52
2024/01/25 02:54:39;;;;;;;16.83;2.57;;;7.10;99.90;;;;;;5050753;28;20028;-52
2024/01/25 02:57:05;;;;;;;13.93;2.63;;;7.00;99.90;;;;;;5050305;28;20041;-52
2024/01/25 02:59:31;;;;;;;18.13;2.83;;;7.00;99.90;;;;;;5049224;28;20374;-56
2024/01/25 03:01:57;;;;;;;19.60;3.80;;;6.90;99.90;;;;;;5050711;28;20105;-52
2024/01/25 03:04:23;;;;;;;22.27;3.00;;;6.90;99.90;;;;;;5050526;28;20033;-54
2024/01/25 03:06:48;;;;;;;19.07;3.10;;;6.80;99.90;;;;;;5050447;28;20033;-52
2024/01/25 03:09:14;;;;;;;15.63;2.83;;;6.70;99.90;;;;;;5050869;28;20021;-52
2024/01/25 03:11:40;;;;;;;22.33;3.20;;;6.70;99.90;;;;;;5053743;28;20540;-55
2024/01/25 03:14:05;;;;;;;23.53;3.13;;;6.60;99.90;;;;;;5054680;28;20036;-55
2024/01/25 03:16:31;;;;;;;20.27;3.60;;;6.60;99.90;;;;;;5054392;28;20086;-52
2024/01/25 03:18:57;;;;;;;21.40;3.27;;;6.50;99.90;;;;;;5054292;28;20151;-54
2024/01/25 03:21:22;;;;;;;23.20;3.47;;;6.50;99.90;;;;;;5054650;28;20033;-53
2024/01/25 03:23:49;;;;;;;12.57;2.97;;;6.50;99.90;;;;;;5054657;28;20037;-52
2024/01/25 03:26:15;;;;;;;16.30;2.57;;;6.40;99.90;;;;;;5054142;28;20131;-55
2024/01/25 03:28:41;;;;;;;15.13;3.10;;;6.40;99.90;;;;;;5054229;28;20119;-53
2024/01/25 03:31:07;;;;;;;14.37;2.80;;;6.30;99.90;;;;;;5054675;28;20109;-52
2024/01/25 03:33:32;;;;;;;18.10;2.63;;;6.30;99.90;;;;;;5054044;28;20561;-52
2024/01/25 03:36:02;;;;;;;18.17;2.93;;;6.30;99.90;;;;;;5054129;28;20025;-52
2024/01/25 03:38:28;;;;;;;16.77;2.07;;;6.20;99.90;;;;;;5054236;28;20339;-51
2024/01/25 03:40:55;;;;;;;14.33;3.17;;;6.20;99.90;;;;;;5052720;28;20056;-54
2024/01/25 03:43:20;;;;;;;15.03;2.50;;;6.20;99.90;;;;;;5053917;28;20484;-52
2024/01/25 03:45:46;;;;;;;16.03;3.43;;;6.10;99.90;;;;;;5055411;28;20025;-55
2024/01/25 03:48:12;;;;;;;17.87;3.00;;;6.10;99.90;;;;;;5054805;28;20036;-55
2024/01/25 03:50:37;;;;;;;20.03;3.13;;;6.00;99.90;;;;;;5054151;28;20049;-56
2024/01/25 03:53:03;;;;;;;16.93;2.90;;;6.00;99.90;;;;;;5053874;28;20022;-55
2024/01/25 03:55:29;;;;;;;25.37;3.13;;;6.00;99.90;;;;;;5053885;28;20028;-55
2024/01/25 03:57:54;;;;;;;14.50;2.50;;;5.90;99.90;;;;;;5053940;28;20490;-55
2024/01/25 04:00:20;;;;;;;21.33;3.43;;;5.90;99.90;;;;;;5053929;28;20094;-56
2024/01/25 04:02:45;;;;;;;21.17;2.83;;;5.90;99.90;;;;;;5053582;28;20033;-52
2024/01/25 04:05:11;;;;;;;14.27;2.73;;;5.80;99.90;;;;;;5053627;28;20029;-56
2024/01/25 04:07:36;;;;;;;20.10;3.63;;;5.80;99.90;;;;;;5053543;28;20032;-55
2024/01/25 04:10:02;;;;;;;10.50;2.63;;;5.70;99.90;;;;;;5053496;28;20390;-55
2024/01/25 04:12:28;;;;;;;11.30;2.73;;;5.70;99.90;;;;;;5052042;28;20115;-53
2024/01/25 04:14:53;;;;;;;22.23;3.07;;;5.70;99.90;;;;;;5053364;28;20048;-56
2024/01/25 04:17:19;;;;;;;17.80;3.00;;;5.80;99.90;;;;;;5052978;28;20033;-56
2024/01/25 04:19:44;;;;;;;13.30;2.73;;;5.70;99.90;;;;;;5053164;28;20177;-56
2024/01/25 04:22:10;;;;;;;20.50;2.57;;;5.70;99.90;;;;;;5052566;28;20108;-56
2024/01/25 04:24:36;;;;;;;19.47;2.47;;;5.70;99.90;;;;;;5053184;28;20504;-54
2024/01/25 04:27:01;;;;;;;12.40;2.60;;;5.70;99.90;;;;;;5053031;28;20123;-55
2024/01/25 04:29:27;;;;;;;17.20;2.70;;;5.60;99.90;;;;;;5053291;28;20021;-55
2024/01/25 04:31:53;;;;;;;21.73;2.67;;;5.60;99.90;;;;;;5052928;28;20502;-53
2024/01/25 04:34:18;;;;;;;23.00;2.73;;;5.60;99.90;;;;;;5053317;28;20024;-54
2024/01/25 04:36:44;;;;;;;16.50;2.23;;;5.50;99.90;;;;;;5054326;28;20095;-55
2024/01/25 04:39:09;;;;;;;20.97;3.13;;;5.50;99.90;;;;;;5053152;28;20056;-52
2024/01/25 04:41:36;;;;;;;14.53;2.83;;;5.50;99.90;;;;;;5053120;28;20032;-55
2024/01/25 04:44:01;;;;;;;25.73;3.37;;;5.50;99.90;;;;;;5052892;28;20098;-55
2024/01/25 04:46:27;;;;;;;21.57;2.90;;;5.50;99.90;;;;;;5052702;28;20474;-55
2024/01/25 04:48:52;;;;;;;20.00;2.10;;;5.50;99.90;;;;;;5052860;28;20025;-54
2024/01/25 04:51:22;;;;;;;12.73;2.80;;;5.40;99.90;;;;;;5053092;28;20474;-52
2024/01/25 04:53:48;;;;;;;;;;;5.40;99.90;;;;;;5053526;28;20466;-54
2024/01/25 04:56:13;;;;;;;14.70;2.30;;;5.40;99.90;;;;;;5052965;28;19918;-53
2024/01/25 04:58:39;;;;;;;15.40;2.83;;;5.40;99.90;;;;;;5052560;28;20500;-51
2024/01/25 05:01:06;;;;;;;17.90;3.10;;;5.40;99.90;;;;;;5052534;28;20124;-52
2024/01/25 05:03:32;;;;;;;12.77;2.33;;;5.30;99.90;;;;;;5052312;28;20114;-53
2024/01/25 05:05:58;;;;;;;16.17;2.53;;;5.30;99.90;;;;;;5052099;28;20520;-51
2024/01/25 05:08:24;;;;;;;22.47;3.47;;;5.30;99.90;;;;;;5052142;28;20024;-55
2024/01/25 05:10:49;;;;;;;18.77;3.83;;;5.30;99.90;;;;;;5052289;28;20029;-55
2024/01/25 05:13:15;;;;;;;17.83;3.17;;;5.30;99.90;;;;;;5052264;28;20040;-55
2024/01/25 05:15:41;;;;;;;13.37;2.60;;;5.30;99.90;;;;;;5052330;28;20508;-55
2024/01/25 05:18:07;;;;;;;21.20;3.03;;;5.20;99.90;;;;;;5052161;28;20036;-51
2024/01/25 05:20:34;;;;;;;14.37;2.70;;;5.30;99.90;;;;;;5051787;28;20450;-54
2024/01/25 05:23:01;;;;;;;17.10;3.67;;;5.20;99.90;;;;;;5052092;28;20033;-52
2024/01/25 05:25:27;;;;;;;16.50;2.30;;;5.20;99.90;;;;;;5052207;28;20047;-51
2024/01/25 05:27:53;;;;;;;17.97;3.03;;;5.20;99.90;;;;;;5050638;28;20445;-50
2024/01/25 05:30:19;;;;;;;12.97;2.77;;;5.20;99.90;;;;;;5051925;28;20116;-56
2024/01/25 05:32:45;;;;;;;22.27;3.40;;;5.20;99.90;;;;;;5051038;28;20468;-54
2024/01/25 05:35:11;;;;;;;18.03;2.70;;;5.20;99.90;;;;;;5052134;28;20068;-55
2024/01/25 05:37:37;;;;;;;21.73;2.73;;;5.10;99.90;;;;;;5051938;28;20053;-55
2024/01/25 05:40:03;;;;;;;20.90;2.80;;;5.10;99.90;;;;;;5051957;28;20029;-51
2024/01/25 05:42:28;;;;;;;22.53;3.10;;;5.10;99.90;;;;;;5051631;28;20111;-53
2024/01/25 05:44:54;;;;;;;20.00;3.30;;;5.00;99.90;;;;;;5051889;28;20033;-55
2024/01/25 05:47:19;;;;;;;20.63;2.77;;;5.00;99.90;;;;;;5051398;28;20350;-51
2024/01/25 05:49:45;;;;;;;18.83;3.37;;;5.00;99.90;;;;;;5051890;28;20044;-54
2024/01/25 05:52:10;;;;;;;28.03;4.50;;;5.00;99.90;;;;;;5051851;28;20113;-51
2024/01/25 05:54:36;;;;;;;15.93;3.23;;;4.90;99.90;;;;;;5051828;28;20048;-52
2024/01/25 05:57:03;;;;;;;13.83;3.00;;;4.90;99.90;;;;;;5051255;28;20571;-55
2024/01/25 05:59:30;;;;;;;21.73;2.80;;;4.90;99.90;;;;;;5051373;28;20454;-51
2024/01/25 06:01:55;;;;;;;18.80;3.67;;;4.80;99.90;;;;;;5051322;28;20106;-55
2024/01/25 06:04:21;;;;;;;13.70;3.10;;;4.80;99.90;;;;;;5051570;28;20469;-55
2024/01/25 06:06:47;;;;;;;19.60;3.23;;;4.70;99.90;;;;;;5050898;28;20469;-53
2024/01/25 06:09:14;;;;;;;14.90;2.77;;;4.60;99.90;;;;;;5051257;28;20061;-56
2024/01/25 06:11:40;;;;;;;20.07;2.93;;;4.60;99.90;;;;;;5049726;28;20029;-54
2024/01/25 06:14:06;;;;;;;20.77;2.37;;;4.50;99.90;;;;;;5051188;28;20029;-52
2024/01/25 06:16:31;;;;;;;16.47;3.33;;;4.40;99.90;;;;;;5051357;28;20041;-55
2024/01/25 06:18:58;;;;;;;14.43;2.87;;;4.30;99.90;;;;;;5051166;28;20035;-55
2024/01/25 06:21:24;;;;;;;12.73;2.80;;;4.30;99.90;;;;;;5051308;28;20033;-54
2024/01/25 06:23:50;;;;;;;15.47;3.67;;;4.20;99.90;;;;;;5050580;28;20028;-55
2024/01/25 06:26:15;;;;;;;16.97;3.23;;;4.20;99.90;;;;;;5048790;28;20445;-55
2024/01/25 06:28:41;;;;;;;14.00;2.73;;;4.20;99.90;;;;;;5050606;28;20025;-51
2024/01/25 06:31:06;;;;;;;14.13;3.20;;;4.10;99.90;;;;;;5050771;28;20119;-54
2024/01/25 06:33:32;;;;;;;16.57;2.90;;;4.10;99.90;;;;;;5049105;28;20028;-54
2024/01/25 06:35:58;;;;;;;13.53;2.90;;;4.00;99.90;;;;;;5050225;28;20424;-54
2024/01/25 06:38:24;;;;;;;12.67;2.70;;;4.00;99.90;;;;;;5052219;28;20050;-55
2024/01/25 06:40:49;;;;;;;18.70;4.00;;;4.00;99.90;;;;;;5053714;28;20017;-54
2024/01/25 06:43:15;;;;;;;12.60;2.73;;;3.90;99.90;;;;;;5060720;28;20029;-55
2024/01/25 06:45:40;;;;;;;15.87;3.23;;;3.90;99.90;;;;;;5062066;28;20032;-54
2024/01/25 06:48:08;;;;;;;16.63;2.63;;;3.80;99.90;;;;;;5070403;28;20036;-53
2024/01/25 06:50:34;;;;;;;14.40;2.87;;;3.80;99.90;;;;;;5069141;28;20370;-54
2024/01/25 06:53:00;;;;;;;12.60;3.30;;;3.80;99.90;;;;;;5070371;28;20024;-55
2024/01/25 06:55:25;;;;;;;15.17;2.77;;;3.80;99.90;;;;;;5070150;28;20031;-55
2024/01/25 06:57:51;;;;;;;20.57;4.57;;;3.80;99.90;;;;;;5061990;28;20035;-55
2024/01/25 07:00:17;;;;;;;19.87;3.80;;;3.70;99.90;;;;;;5061922;28;20029;-56
2024/01/25 07:02:43;;;;;;;19.93;3.60;;;3.80;99.90;;;;;;5070415;28;20025;-55
2024/01/25 07:05:08;;;;;;;21.00;3.73;;;3.80;99.90;;;;;;5063153;28;20060;-55
2024/01/25 07:07:34;;;;;;;25.13;4.10;;;3.70;99.90;;;;;;5069073;28;20171;-54
2024/01/25 07:10:00;;;;;;;20.33;3.80;;;3.70;99.90;;;;;;5056096;28;20028;-51
2024/01/25 07:12:26;;;;;;;16.37;3.33;;;3.70;99.90;;;;;;5068100;28;20039;-55
2024/01/25 07:14:52;;;;;;;22.60;3.70;;;3.60;99.90;;;;;;5070234;28;20172;-56
2024/01/25 07:17:19;;;;;;;17.73;2.77;;;3.60;99.90;;;;;;5069877;28;20162;-56
2024/01/25 07:19:45;;;;;;;22.53;3.97;;;3.60;99.90;;;;;;5068661;28;20036;-55
2024/01/25 07:22:12;;;;;;;20.23;3.60;;;3.60;99.90;;;;;;5070038;28;20162;-56
2024/01/25 07:24:38;;;;;;;19.73;3.53;;;3.60;99.90;;;;;;5069662;28;20361;-56
2024/01/25 07:27:03;;;;;;;15.23;3.00;;;3.60;99.90;;;;;;5069956;28;20045;-56
2024/01/25 07:29:29;;;;;;;21.73;3.43;;;3.60;99.90;;;;;;5069673;28;20025;-51
2024/01/25 07:31:54;;;;;;;19.00;3.13;;;3.60;99.90;;;;;;5065218;28;20056;-54
2024/01/25 07:34:20;;;;;;;18.27;3.90;;;3.60;99.90;;;;;;5058028;28;20477;-56
2024/01/25 07:36:46;;;;;;;23.47;3.13;;;3.60;99.90;;;;;;5069984;28;20133;-51
2024/01/25 07:39:11;;;;;;;17.47;3.47;;;3.70;99.90;;;;;;5069408;28;20025;-52
2024/01/25 07:41:37;;;;;;;13.83;2.80;;;3.70;99.90;;;;;;5069918;28;20116;-52
2024/01/25 07:44:03;;;;;;;22.77;5.80;;;3.70;99.90;;;;;;5069562;28;20031;-55
2024/01/25 07:46:28;;;;;;;24.70;4.77;;;3.80;99.90;;;;;;5069536;28;20477;-53
2024/01/25 07:48:54;;;;;;;14.03;3.67;;;3.90;99.90;;;;;;5069402;28;20074;-56
2024/01/25 07:51:19;;;;;;;20.70;3.77;;;4.00;99.90;;;;;;5069688;28;20473;-51
2024/01/25 07:53:45;;;;;;;22.67;4.00;;;4.10;99.90;;;;;;5069261;28;20491;-51
2024/01/25 07:56:11;;;;;;;12.77;2.77;;;4.10;99.90;;;;;;5070302;28;20396;-54
2024/01/25 07:58:37;;;;;;;13.53;3.80;;;4.20;99.90;;;;;;5073067;28;20032;-53
2024/01/25 08:01:05;;;;;;;19.43;4.00;;;4.30;99.90;;;;;;5072297;28;20024;-55
2024/01/25 08:03:30;;;;;;;18.80;4.40;;;4.30;99.90;;;;;;5074408;28;20416;-54
2024/01/25 08:05:56;;;;;;;21.10;3.70;;;4.30;99.90;;;;;;5058701;28;20062;-53
2024/01/25 08:08:22;;;;;;;22.83;3.70;;;4.50;99.90;;;;;;5072374;28;20055;-54
2024/01/25 08:10:47;;;;;;;18.53;2.83;;;4.50;99.90;;;;;;5073347;28;20028;-52
2024/01/25 08:13:13;;;;;;;25.47;4.13;;;4.50;99.90;;;;;;5072761;28;20033;-49
2024/01/25 08:15:38;;;;;;;20.30;3.43;;;4.50;99.90;;;;;;5072700;28;20059;-54
2024/01/25 08:18:04;;;;;;;15.23;3.43;;;4.60;99.90;;;;;;5072663;28;20025;-51
2024/01/25 08:20:30;;;;;;;15.53;3.50;;;4.60;99.90;;;;;;5064085;28;20029;-53
2024/01/25 08:22:56;;;;;;;19.93;4.07;;;4.70;99.90;;;;;;5059329;28;20116;-53
2024/01/25 08:25:22;;;;;;;26.70;4.97;;;4.80;99.90;;;;;;5068749;28;20068;-51
2024/01/25 08:27:47;;;;;;;19.60;3.67;;;4.80;99.90;;;;;;5063651;28;20037;-53
2024/01/25 08:30:13;;;;;;;19.27;4.13;;;4.90;99.90;;;;;;5072805;28;20029;-49
2024/01/25 08:32:39;;;;;;;21.07;4.37;;;4.90;99.90;;;;;;5072469;28;20028;-52
2024/01/25 08:35:05;;;;;;;16.77;3.17;;;5.00;99.90;;;;;;5072691;28;20027;-52
2024/01/25 08:37:31;;;;;;;16.83;3.67;;;5.10;99.90;;;;;;5063925;28;20036;-55
2024/01/25 08:39:56;;;;;;;23.00;4.47;;;5.10;99.90;;;;;;5057019;28;20033;-53
2024/01/25 08:42:22;;;;;;;18.43;3.83;;;5.10;99.90;;;;;;5068404;28;20028;-56
2024/01/25 08:44:50;;;;;;;24.87;4.00;;;5.10;99.90;;;;;;5066565;28;20028;-55
2024/01/25 08:47:19;;;;;;;15.80;3.80;;;5.20;99.90;;;;;;5067636;28;20029;-55
2024/01/25 08:49:44;;;;;;;17.73;4.10;;;5.20;99.90;;;;;;5055365;28;20102;-55
2024/01/25 08:52:10;;;;;;;19.43;4.43;;;5.30;99.90;;;;;;5065876;28;20362;-54
2024/01/25 08:54:42;;;;;;;24.23;4.37;;;5.20;99.90;;;;;;5070139;28;20032;-53
2024/01/25 08:57:09;;;;;;;22.33;3.60;;;5.30;99.90;;;;;;5064092;28;20036;-54
2024/01/25 08:59:37;;;;;;;19.47;3.33;;;5.40;99.90;;;;;;5072075;28;20438;-54
2024/01/25 09:02:06;;;;;;;19.43;4.47;;;5.30;99.90;;;;;;5063779;28;20090;-54
2024/01/25 09:04:32;;;;;;;19.00;5.20;;;5.30;99.90;;;;;;5070963;28;20036;-54
2024/01/25 09:06:59;;;;;;;20.23;4.03;;;5.50;99.90;;;;;;5060140;28;20032;-55
2024/01/25 09:09:24;;;;;;;18.30;4.13;;;5.50;99.90;;;;;;5060026;28;20048;-54
2024/01/25 09:11:50;;;;;;;26.73;4.60;;;5.50;99.90;;;;;;5068841;28;20025;-52
2024/01/25 09:14:16;;;;;;;27.43;5.07;;;5.60;99.90;;;;;;5051383;28;20025;-53
2024/01/25 09:16:42;;;;;;;27.73;5.87;;;5.70;99.90;;;;;;5061861;28;20517;-54
2024/01/25 09:19:08;;;;;;;18.53;4.33;;;5.80;99.90;;;;;;5071634;28;20127;-55
2024/01/25 09:21:33;;;;;;;33.27;5.87;;;5.90;99.90;;;;;;5070465;28;20163;-53
2024/01/25 09:23:59;;;;;;;19.53;4.17;;;5.90;99.90;;;;;;5056221;28;20142;-51
2024/01/25 09:26:25;;;;;;;18.37;4.47;;;5.90;99.90;;;;;;5063736;28;20056;-56
2024/01/25 09:28:51;;;;;;;25.70;4.33;;;6.00;99.90;;;;;;5070990;28;20031;-56
2024/01/25 09:31:16;;;;;;;19.50;4.47;;;6.20;99.90;;;;;;5071722;28;20032;-56
2024/01/25 09:33:42;;;;;;;18.17;4.10;;;6.40;99.90;;;;;;5052478;28;20067;-56
2024/01/25 09:36:07;;;;;;;33.20;5.80;;;6.80;99.90;;;;;;5064952;28;20032;-54
2024/01/25 09:38:33;;;;;;;17.90;4.83;;;7.10;99.90;;;;;;5070808;28;20378;-54
2024/01/25 09:41:00;;;;;;;17.90;4.73;;;7.50;99.90;;;;;;5049519;28;20423;-52
2024/01/25 09:43:27;;;;;;;23.47;4.70;;;7.80;99.90;;;;;;5066523;28;20114;-55
2024/01/25 09:45:56;;;;;;;28.10;4.50;;;7.90;99.90;;;;;;5062521;28;20418;-56
2024/01/25 09:48:23;;;;;;;26.58;5.40;;;8.10;99.90;;;;;;5061197;28;20099;-54
2024/01/25 09:50:49;;;;;;;26.13;5.83;;;8.60;99.90;;;;;;5060464;28;20031;-56
2024/01/25 09:53:21;;;;;;;19.00;5.40;;;9.00;99.90;;;;;;5050662;28;20033;-57
2024/01/25 09:55:57;;;;;;;17.63;4.00;;;9.70;99.90;;;;;;5061519;28;20067;-56
2024/01/25 09:58:25;;;;;;;40.60;10.73;;;10.30;99.90;;;;;;5055568;28;20029;-56
2024/01/25 10:00:52;;;;;;;18.95;6.15;;;10.80;99.90;;;;;;5062762;28;20056;-57
2024/01/25 10:03:18;;;;;;;21.02;5.38;;;11.10;99.90;;;;;;5061730;28;20497;-53
2024/01/25 10:05:44;;;;;;;20.45;5.32;;;11.70;99.90;;;;;;5062031;28;20041;-55
2024/01/25 10:08:13;;;;;;;17.13;4.47;;;12.20;99.90;;;;;;5058820;28;20047;-55
2024/01/25 10:10:39;;;;;;;21.05;5.88;;;12.40;99.90;;;;;;5062118;28;20077;-55
2024/01/25 10:13:05;;;;;;;24.90;5.57;;;12.40;99.90;;;;;;5060919;28;20164;-55
2024/01/25 10:15:31;;;;;;;26.08;6.15;;;12.20;99.90;;;;;;5062774;28;20032;-56
2024/01/25 10:17:56;;;;;;;26.00;7.32;;;11.80;99.90;;;;;;5066469;28;20177;-57
2024/01/25 10:20:25;;;;;;;21.48;7.70;;;11.50;99.90;;;;;;5066500;28;20043;-54
2024/01/25 10:22:52;;;;;;;25.17;6.82;;;11.40;99.90;;;;;;5067223;28;20032;-56
2024/01/25 10:25:18;;;;;;;29.67;8.02;;;11.40;99.90;;;;;;5066518;28;20037;-55
2024/01/25 10:27:44;;;;;;;23.33;7.93;;;11.50;99.90;;;;;;5064130;28;20382;-54
2024/01/25 10:30:10;;;;;;;29.13;8.25;;;11.40;99.90;;;;;;5068042;28;20160;-48
2024/01/25 10:32:37;;;;;;;28.73;9.98;;;11.10;99.90;;;;;;5068036;28;20025;-48
2024/01/25 10:35:03;;;;;;;27.40;8.18;;;11.00;99.90;;;;;;5068840;28;20315;-49
2024/01/25 10:37:31;;;;;;;26.50;8.73;;;11.00;99.90;;;;;;5069315;28;20456;-48
2024/01/25 10:39:58;;;;;;;29.20;9.60;;;11.00;99.90;;;;;;5066112;28;20033;-49
2024/01/25 10:42:26;;;;;;;24.60;9.55;;;11.00;99.90;;;;;;5058363;28;20397;-49
2024/01/25 10:44:51;;;;;;;28.02;8.23;;;11.00;99.90;;;;;;5060582;28;20043;-50
2024/01/25 10:47:17;;;;;;;24.15;8.70;;;10.80;99.90;;;;;;5062541;28;20120;-55
2024/01/25 10:49:46;;;;;;;25.40;8.23;;;10.80;99.90;;;;;;5062459;28;20107;-54
2024/01/25 10:52:12;;;;;;;33.72;10.07;;;11.00;99.90;;;;;;5060018;28;20049;-54
2024/01/25 10:54:38;;;;;;;28.45;9.50;;;11.10;99.90;;;;;;5060726;28;20063;-54
2024/01/25 10:57:05;;;;;;;33.20;10.07;;;11.60;99.90;;;;;;5064024;28;20032;-55
2024/01/25 10:59:31;;;;;;;26.98;9.65;;;11.80;99.90;;;;;;5064064;28;20024;-55
2024/01/25 11:01:57;;;;;;;26.48;8.07;;;11.90;99.90;;;;;;5064003;28;20036;-55
2024/01/25 11:04:23;;;;;;;30.10;9.13;;;12.10;99.90;;;;;;5061930;28;20052;-55
2024/01/25 11:06:49;;;;;;;21.83;7.53;;;12.20;99.90;;;;;;5062042;28;20082;-53
2024/01/25 11:09:21;;;;;;;29.67;8.38;;;12.60;99.90;;;;;;5064802;28;20449;-53
2024/01/25 11:11:49;;;;;;;28.92;9.20;;;12.80;99.90;;;;;;5063668;28;20453;-53
2024/01/25 11:14:16;;;;;;;28.92;8.57;;;13.00;99.90;;;;;;5068691;28;20111;-55
2024/01/25 11:16:44;;;;;;;28.23;8.00;;;13.10;99.90;;;;;;5033819;28;20033;-54
2024/01/25 11:19:17;;;;;;;24.02;7.78;;;13.50;99.90;;;;;;5069396;28;20196;-55
2024/01/25 11:21:49;;;;;;;29.08;8.25;;;13.80;99.90;;;;;;5060741;28;20024;-55
2024/01/25 11:24:25;;;;;;;28.00;8.90;;;13.90;99.90;;;;;;5049441;28;20044;-51
2024/01/25 11:26:51;;;;;;;26.50;8.15;;;13.70;99.90;;;;;;5057102;28;20047;-54
2024/01/25 11:29:18;;;;;;;30.65;8.63;;;13.00;99.90;;;;;;5059134;28;20088;-53
2024/01/25 11:31:44;;;;;;;24.52;8.32;;;12.70;99.90;;;;;;5061891;28;20025;-51
2024/01/25 11:34:11;;;;;;;27.30;9.13;;;12.60;99.90;;;;;;5067188;28;20044;-50
2024/01/25 11:36:37;;;;;;;28.80;8.50;;;12.20;99.90;;;;;;5066112;28;20037;-52
2024/01/25 11:39:04;;;;;;;30.83;9.07;;;12.00;99.90;;;;;;5064656;28;20115;-54
2024/01/25 11:41:31;;;;;;;29.88;8.35;;;11.70;99.90;;;;;;5065745;28;20028;-54
2024/01/25 11:43:56;;;;;;;25.33;8.48;;;11.40;99.90;;;;;;5073252;28;20037;-53
2024/01/25 11:46:22;;;;;;;27.60;7.55;;;11.30;99.90;;;;;;5073444;28;20025;-53
2024/01/25 11:48:48;;;;;;;28.95;7.38;;;11.30;99.90;;;;;;5073436;28;20104;-53
2024/01/25 11:51:14;;;;;;;26.30;8.52;;;11.30;99.90;;;;;;5073563;28;20381;-52
2024/01/25 11:53:40;;;;;;;27.85;7.97;;;11.40;99.90;;;;;;5073567;28;20044;-54
2024/01/25 11:56:10;;;;;;;24.73;6.43;;;11.20;99.90;;;;;;5057352;28;20028;-54
2024/01/25 11:58:38;;;;;;;26.75;6.55;;;11.20;99.90;;;;;;5073475;28;20024;-52
2024/01/25 12:01:07;;;;;;;26.00;6.20;;;11.20;99.90;;;;;;5070181;28;20556;-53
2024/01/25 12:03:37;;;;;;;22.70;6.30;;;11.10;99.90;;;;;;5069404;28;20028;-54
2024/01/25 12:06:04;;;;;;;25.05;6.40;;;10.80;99.90;;;;;;5060453;28;20053;-53
2024/01/25 12:08:33;;;;;;;24.25;6.28;;;10.60;99.90;;;;;;5059823;28;20036;-50
2024/01/25 12:11:04;;;;;;;25.02;6.80;;;10.40;99.90;;;;;;5065076;28;20060;-53
2024/01/25 12:13:34;;;;;;;22.55;5.40;;;10.20;99.90;;;;;;5058508;28;20032;-54
2024/01/25 12:16:01;;;;;;;23.63;6.00;;;10.10;99.90;;;;;;5073165;28;20032;-54
2024/01/25 12:18:28;;;;;;;24.83;6.13;;;9.90;99.90;;;;;;5069770;28;20393;-54
2024/01/25 12:20:54;;;;;;;22.30;6.30;;;9.80;99.90;;;;;;5073100;28;20436;-54
2024/01/25 12:23:20;;;;;;;28.07;6.83;;;9.80;99.90;;;;;;5072901;28;20028;-54
2024/01/25 12:25:46;;;;;;;30.90;6.53;;;9.70;99.90;;;;;;5064475;28;20044;-53
2024/01/25 12:28:11;;;;;;;24.97;6.87;;;9.70;99.90;;;;;;5069365;28;20035;-50
2024/01/25 12:30:37;;;;;;;26.30;7.60;;;9.70;99.90;;;;;;5064058;28;20033;-54
2024/01/25 12:33:03;;;;;;;26.07;6.20;;;9.50;99.90;;;;;;5066790;28;20055;-55
2024/01/25 12:35:29;;;;;;;31.47;7.90;;;9.50;99.90;;;;;;5064176;28;20112;-54
2024/01/25 12:37:54;;;;;;;18.93;6.67;;;9.40;99.90;;;;;;5057272;28;20533;-54
2024/01/25 12:40:20;;;;;;;28.37;7.30;;;9.40;99.90;;;;;;5065288;28;20089;-54